EWG886 LEPA-EDDM
Flight info
| Callsign | EWG886 |
|---|---|
| Flight time | N/A |
| Altitude | 36000 |
| Route | MEROS DCT LAPIT DCT CHELY/N0451F320 DCT LUMAS DCT UNANA/N0454F300 DCT STP DCT RAPED DCT PIGOS DCT EKSID DCT NOSTA DCT NOPMU DCT VAKON DCT TAGIP DCT GUNGO DCT TISAX DCT IVKAL T102 NINUR T101 BETOS BETOS1A |
| Aircraft | A320/M-SDE3FGHIRWY/LB1 |
Departure
| Time | 2026-05-04 16:20 |
|---|---|
| Airport | Palma de Mallorca Airport (LEPA) |
Arrival
| Time | N/A |
|---|---|
| Airport | Munich Airport (EDDM) |
| Time | Latitude | Longitude | Altitude | Speed | Heading |
|---|---|---|---|---|---|
| 2026-05-04 15:51 | 39.54897 | 2.73805 | 33 ft | 0 kts | 239° |
| 2026-05-04 16:08 | 39.54927 | 2.73872 | 31 ft | 3 kts | 244° |
| 2026-05-04 16:09 | 39.54933 | 2.73932 | 30 ft | 3 kts | 314° |
| 2026-05-04 16:09 | 39.54928 | 2.73938 | 31 ft | 0 kts | 326° |
| 2026-05-04 16:13 | 39.54944 | 2.73924 | 31 ft | 11 kts | 326° |
| 2026-05-04 16:13 | 39.55097 | 2.73803 | 33 ft | 13 kts | 330° |
| 2026-05-04 16:14 | 39.55208 | 2.73821 | 33 ft | 7 kts | 352° |
| 2026-05-04 16:14 | 39.55371 | 2.73692 | 34 ft | 18 kts | 328° |
| 2026-05-04 16:15 | 39.55657 | 2.73518 | 34 ft | 12 kts | 38° |
| 2026-05-04 16:16 | 39.55778 | 2.73760 | 35 ft | 24 kts | 58° |
| 2026-05-04 16:16 | 39.55938 | 2.74095 | 38 ft | 9 kts | 58° |
| 2026-05-04 16:17 | 39.56094 | 2.74303 | 38 ft | 17 kts | 34° |
| 2026-05-04 16:18 | 39.56150 | 2.74353 | 40 ft | 0 kts | 31° |
| 2026-05-04 16:18 | 39.56159 | 2.74360 | 40 ft | 10 kts | 31° |
| 2026-05-04 16:19 | 39.56229 | 2.74270 | 39 ft | 0 kts | 243° |
| 2026-05-04 16:19 | 39.55917 | 2.73615 | 33 ft | 106 kts | 239° |
| 2026-05-04 16:20 | 39.54226 | 2.70062 | 1086 ft | 172 kts | 238° |
| 2026-05-04 16:20 | 39.52872 | 2.67222 | 1934 ft | 205 kts | 239° |
| 2026-05-04 16:21 | 39.50546 | 2.62285 | 3909 ft | 218 kts | 239° |
| 2026-05-04 16:22 | 39.48214 | 2.59652 | 4963 ft | 243 kts | 207° |
| 2026-05-04 16:22 | 39.43546 | 2.56798 | 5295 ft | 257 kts | 195° |
| 2026-05-04 16:23 | 39.38877 | 2.60099 | 7513 ft | 281 kts | 137° |
| 2026-05-04 16:24 | 39.35085 | 2.68407 | 10538 ft | 301 kts | 81° |
| 2026-05-04 16:25 | 39.35840 | 2.74156 | 10963 ft | 347 kts | 79° |
| 2026-05-04 16:26 | 39.37635 | 2.86957 | 13434 ft | 370 kts | 80° |
| 2026-05-04 16:26 | 39.38807 | 2.95802 | 15127 ft | 379 kts | 80° |
| 2026-05-04 16:27 | 39.39698 | 3.02584 | 16324 ft | 386 kts | 80° |
| 2026-05-04 16:28 | 39.41067 | 3.12986 | 17883 ft | 396 kts | 80° |
| 2026-05-04 16:28 | 39.42518 | 3.23584 | 19130 ft | 403 kts | 75° |
| 2026-05-04 16:29 | 39.47745 | 3.36516 | 21171 ft | 414 kts | 59° |
| 2026-05-04 16:30 | 39.52208 | 3.46230 | 22519 ft | 422 kts | 59° |
| 2026-05-04 16:31 | 39.55217 | 3.52820 | 23349 ft | 428 kts | 59° |
| 2026-05-04 16:31 | 39.59800 | 3.62862 | 24479 ft | 435 kts | 59° |
| 2026-05-04 16:32 | 39.64456 | 3.73070 | 25519 ft | 442 kts | 59° |
| 2026-05-04 16:33 | 39.67595 | 3.79975 | 26166 ft | 446 kts | 59° |
| 2026-05-04 16:33 | 39.70761 | 3.86944 | 26781 ft | 450 kts | 59° |
| 2026-05-04 16:34 | 39.73943 | 3.93995 | 27357 ft | 454 kts | 59° |
| 2026-05-04 16:34 | 39.75542 | 3.97542 | 27628 ft | 456 kts | 59° |
| 2026-05-04 16:35 | 39.80378 | 4.08279 | 28395 ft | 461 kts | 59° |
| 2026-05-04 16:35 | 39.86105 | 4.18306 | 29064 ft | 465 kts | 39° |
| 2026-05-04 16:36 | 39.88750 | 4.20723 | 29341 ft | 464 kts | 29° |
| 2026-05-04 16:36 | 39.94764 | 4.23598 | 29929 ft | 461 kts | 9° |
| 2026-05-04 16:37 | 40.01072 | 4.25071 | 30513 ft | 460 kts | 9° |
| 2026-05-04 16:37 | 40.04218 | 4.25810 | 30812 ft | 459 kts | 9° |
| 2026-05-04 16:37 | 40.10462 | 4.27277 | 31379 ft | 458 kts | 9° |
| 2026-05-04 16:38 | 40.16767 | 4.28773 | 31946 ft | 457 kts | 9° |
| 2026-05-04 16:39 | 40.26095 | 4.30983 | 32763 ft | 455 kts | 9° |
| 2026-05-04 16:39 | 40.32325 | 4.32457 | 33293 ft | 454 kts | 9° |
| 2026-05-04 16:40 | 40.38543 | 4.33927 | 33814 ft | 453 kts | 9° |
| 2026-05-04 16:40 | 40.44743 | 4.35397 | 34330 ft | 452 kts | 9° |
| 2026-05-04 16:41 | 40.50932 | 4.36867 | 34833 ft | 451 kts | 9° |
| 2026-05-04 16:41 | 40.60185 | 4.39084 | 35507 ft | 450 kts | 9° |
| 2026-05-04 16:42 | 40.69414 | 4.41298 | 35999 ft | 451 kts | 9° |
| 2026-05-04 16:43 | 40.75598 | 4.42781 | 36010 ft | 452 kts | 9° |
| 2026-05-04 16:43 | 40.84876 | 4.45005 | 36008 ft | 452 kts | 9° |
| 2026-05-04 16:45 | 41.03439 | 4.49513 | 36013 ft | 452 kts | 10° |
| 2026-05-04 16:46 | 41.18919 | 4.53284 | 36019 ft | 453 kts | 10° |
| 2026-05-04 16:47 | 41.31311 | 4.56307 | 36021 ft | 453 kts | 10° |
| 2026-05-04 16:48 | 41.43655 | 4.59344 | 36022 ft | 453 kts | 10° |
| 2026-05-04 16:49 | 41.56049 | 4.62382 | 36023 ft | 453 kts | 10° |
| 2026-05-04 16:50 | 41.68436 | 4.65485 | 36023 ft | 453 kts | 13° |
| 2026-05-04 16:51 | 41.74230 | 4.68715 | 36021 ft | 453 kts | 32° |
| 2026-05-04 16:51 | 41.76761 | 4.71240 | 36020 ft | 454 kts | 41° |
| 2026-05-04 16:52 | 41.85777 | 4.83094 | 36018 ft | 454 kts | 44° |
| 2026-05-04 16:53 | 41.92534 | 4.92032 | 36020 ft | 455 kts | 44° |
| 2026-05-04 16:54 | 42.01531 | 5.03994 | 36022 ft | 455 kts | 44° |
| 2026-05-04 16:55 | 42.15001 | 5.22013 | 36023 ft | 455 kts | 44° |
| 2026-05-04 16:56 | 42.26175 | 5.37058 | 36025 ft | 455 kts | 45° |
| 2026-05-04 16:57 | 42.32896 | 5.46129 | 36025 ft | 455 kts | 44° |
| 2026-05-04 16:58 | 42.41844 | 5.58262 | 36026 ft | 455 kts | 45° |
| 2026-05-04 17:00 | 42.55239 | 5.76517 | 36027 ft | 455 kts | 45° |
| 2026-05-04 17:01 | 42.66385 | 5.91805 | 36026 ft | 455 kts | 45° |
| 2026-05-04 17:02 | 42.75282 | 6.04068 | 36028 ft | 456 kts | 45° |
| 2026-05-04 17:03 | 42.81952 | 6.13291 | 36027 ft | 456 kts | 45° |
| 2026-05-04 17:03 | 42.88912 | 6.22091 | 36027 ft | 455 kts | 39° |
| 2026-05-04 17:04 | 42.98584 | 6.33163 | 36027 ft | 455 kts | 39° |
| 2026-05-04 17:05 | 43.08261 | 6.44323 | 36026 ft | 455 kts | 40° |
| 2026-05-04 17:06 | 43.15516 | 6.52718 | 36028 ft | 455 kts | 40° |
| 2026-05-04 17:07 | 43.21883 | 6.60375 | 36024 ft | 456 kts | 47° |
| 2026-05-04 17:07 | 43.26309 | 6.68436 | 36023 ft | 456 kts | 54° |
| 2026-05-04 17:08 | 43.31898 | 6.79003 | 36026 ft | 456 kts | 53° |
| 2026-05-04 17:09 | 43.35618 | 6.86051 | 36025 ft | 456 kts | 54° |
| 2026-05-04 17:09 | 43.39324 | 6.93122 | 36026 ft | 456 kts | 54° |
| 2026-05-04 17:10 | 43.48584 | 7.10818 | 36026 ft | 456 kts | 54° |
| 2026-05-04 17:11 | 43.52259 | 7.17866 | 36026 ft | 456 kts | 54° |
| 2026-05-04 17:12 | 43.57812 | 7.28580 | 36026 ft | 456 kts | 54° |
| 2026-05-04 17:13 | 43.66985 | 7.46332 | 36024 ft | 456 kts | 54° |
| 2026-05-04 17:14 | 43.74329 | 7.60621 | 36024 ft | 456 kts | 54° |
| 2026-05-04 17:15 | 43.79822 | 7.71354 | 36025 ft | 456 kts | 54° |
| 2026-05-04 17:15 | 43.84075 | 7.77797 | 36020 ft | 455 kts | 38° |
| 2026-05-04 17:16 | 43.89086 | 7.83161 | 36009 ft | 455 kts | 37° |
| 2026-05-04 17:17 | 43.98787 | 7.94510 | 36001 ft | 458 kts | 43° |
| 2026-05-04 17:18 | 44.07200 | 8.05736 | 36016 ft | 458 kts | 43° |
| 2026-05-04 17:19 | 44.16395 | 8.18015 | 36018 ft | 458 kts | 43° |
| 2026-05-04 17:20 | 44.25594 | 8.30355 | 36017 ft | 459 kts | 44° |
| 2026-05-04 17:20 | 44.32479 | 8.39641 | 36026 ft | 459 kts | 44° |
| 2026-05-04 17:21 | 44.41644 | 8.52027 | 36026 ft | 458 kts | 44° |
| 2026-05-04 17:22 | 44.46220 | 8.58233 | 36006 ft | 459 kts | 44° |
| 2026-05-04 17:23 | 44.55379 | 8.70718 | 36017 ft | 459 kts | 44° |
| 2026-05-04 17:24 | 44.62206 | 8.80070 | 36022 ft | 459 kts | 44° |
| 2026-05-04 17:25 | 44.71326 | 8.92602 | 36029 ft | 458 kts | 44° |
| 2026-05-04 17:26 | 44.80426 | 9.05143 | 36025 ft | 458 kts | 44° |
| 2026-05-04 17:27 | 44.91768 | 9.20880 | 36021 ft | 458 kts | 44° |
| 2026-05-04 17:28 | 45.00828 | 9.33512 | 36024 ft | 457 kts | 44° |
| 2026-05-04 17:29 | 45.14356 | 9.52488 | 36028 ft | 456 kts | 44° |
| 2026-05-04 17:31 | 45.25555 | 9.68284 | 36023 ft | 455 kts | 44° |
| 2026-05-04 17:32 | 45.36743 | 9.84190 | 36020 ft | 455 kts | 45° |
| 2026-05-04 17:33 | 45.45688 | 9.96944 | 36018 ft | 455 kts | 45° |
| 2026-05-04 17:34 | 45.54495 | 10.09912 | 36016 ft | 455 kts | 46° |
| 2026-05-04 17:35 | 45.65358 | 10.26378 | 36002 ft | 456 kts | 46° |
| 2026-05-04 17:36 | 45.69737 | 10.32972 | 35999 ft | 457 kts | 46° |
| 2026-05-04 17:36 | 45.74109 | 10.39589 | 35998 ft | 458 kts | 46° |
| 2026-05-04 17:37 | 45.78480 | 10.46239 | 35991 ft | 459 kts | 46° |
| 2026-05-04 17:37 | 45.82824 | 10.52874 | 35994 ft | 460 kts | 46° |
| 2026-05-04 17:38 | 45.87203 | 10.59561 | 36015 ft | 459 kts | 46° |
| 2026-05-04 17:38 | 45.91585 | 10.66237 | 35999 ft | 460 kts | 44° |
| 2026-05-04 17:39 | 45.99580 | 10.73762 | 35983 ft | 461 kts | 27° |
| 2026-05-04 17:39 | 46.05245 | 10.78106 | 36002 ft | 461 kts | 27° |
| 2026-05-04 17:40 | 46.10897 | 10.82459 | 36010 ft | 461 kts | 28° |
| 2026-05-04 17:40 | 46.16560 | 10.86849 | 35986 ft | 463 kts | 28° |
| 2026-05-04 17:41 | 46.22247 | 10.91264 | 35980 ft | 465 kts | 28° |
| 2026-05-04 17:41 | 46.27961 | 10.95684 | 36009 ft | 466 kts | 27° |
| 2026-05-04 17:42 | 46.33660 | 11.00100 | 36025 ft | 464 kts | 28° |
| 2026-05-04 17:42 | 46.39393 | 11.04376 | 36036 ft | 462 kts | 21° |
| 2026-05-04 17:43 | 46.45619 | 11.06433 | 36028 ft | 460 kts | 2° |
| 2026-05-04 17:43 | 46.52022 | 11.06475 | 36009 ft | 461 kts | 359° |
| 2026-05-04 17:44 | 46.58437 | 11.06480 | 36015 ft | 461 kts | 359° |
| 2026-05-04 17:44 | 46.64854 | 11.06399 | 36011 ft | 461 kts | 354° |
| 2026-05-04 17:45 | 46.71168 | 11.05266 | 36023 ft | 460 kts | 352° |
| 2026-05-04 17:45 | 46.77566 | 11.04082 | 35981 ft | 462 kts | 352° |
| 2026-05-04 17:46 | 46.83920 | 11.02907 | 35976 ft | 465 kts | 352° |
| 2026-05-04 17:46 | 46.90340 | 11.01678 | 35913 ft | 467 kts | 352° |
| 2026-05-04 17:47 | 46.93574 | 11.01121 | 35252 ft | 469 kts | 356° |
| 2026-05-04 17:47 | 46.96849 | 11.01199 | 34295 ft | 472 kts | 5° |
| 2026-05-04 17:47 | 47.00113 | 11.01706 | 33347 ft | 473 kts | 6° |
| 2026-05-04 17:47 | 47.03404 | 11.02218 | 32284 ft | 477 kts | 5° |
| 2026-05-04 17:48 | 47.06717 | 11.02726 | 31220 ft | 480 kts | 5° |
| 2026-05-04 17:48 | 47.10046 | 11.03228 | 30068 ft | 483 kts | 5° |
| 2026-05-04 17:48 | 47.13406 | 11.03730 | 28850 ft | 487 kts | 5° |
| 2026-05-04 17:48 | 47.16784 | 11.04236 | 27626 ft | 490 kts | 5° |
| 2026-05-04 17:49 | 47.20152 | 11.04747 | 26936 ft | 481 kts | 5° |
| 2026-05-04 17:49 | 47.23458 | 11.05252 | 26119 ft | 475 kts | 5° |
| 2026-05-04 17:49 | 47.26727 | 11.05754 | 25338 ft | 469 kts | 5° |
| 2026-05-04 17:49 | 47.29947 | 11.06249 | 24567 ft | 462 kts | 5° |
| 2026-05-04 17:50 | 47.33120 | 11.06735 | 23821 ft | 456 kts | 5° |
| 2026-05-04 17:50 | 47.36259 | 11.07213 | 23094 ft | 451 kts | 5° |
| 2026-05-04 17:50 | 47.39347 | 11.07683 | 22803 ft | 442 kts | 5° |
| 2026-05-04 17:50 | 47.42396 | 11.08151 | 22553 ft | 438 kts | 5° |
| 2026-05-04 17:51 | 47.45418 | 11.08621 | 22302 ft | 435 kts | 5° |
| 2026-05-04 17:51 | 47.48419 | 11.09091 | 22053 ft | 432 kts | 5° |
| 2026-05-04 17:51 | 47.51393 | 11.09554 | 21802 ft | 428 kts | 5° |
| 2026-05-04 17:51 | 47.54342 | 11.10134 | 21554 ft | 427 kts | 11° |
| 2026-05-04 17:52 | 47.57194 | 11.11329 | 21299 ft | 426 kts | 20° |
| 2026-05-04 17:52 | 47.59888 | 11.13165 | 21045 ft | 427 kts | 29° |
| 2026-05-04 17:52 | 47.62405 | 11.15350 | 20802 ft | 423 kts | 30° |
| 2026-05-04 17:52 | 47.64937 | 11.17549 | 20562 ft | 421 kts | 30° |
| 2026-05-04 17:53 | 47.67458 | 11.19736 | 20303 ft | 419 kts | 30° |
| 2026-05-04 17:53 | 47.69971 | 11.21914 | 20053 ft | 418 kts | 30° |
| 2026-05-04 17:53 | 47.72479 | 11.24087 | 19806 ft | 416 kts | 29° |
| 2026-05-04 17:53 | 47.75096 | 11.25901 | 19526 ft | 411 kts | 20° |
| 2026-05-04 17:54 | 47.77758 | 11.27379 | 18999 ft | 407 kts | 20° |
| 2026-05-04 17:54 | 47.80398 | 11.28844 | 18484 ft | 402 kts | 20° |
| 2026-05-04 17:54 | 47.83007 | 11.30293 | 17968 ft | 398 kts | 20° |
| 2026-05-04 17:54 | 47.85589 | 11.31733 | 17461 ft | 394 kts | 21° |
| 2026-05-04 17:55 | 47.88040 | 11.33513 | 16952 ft | 391 kts | 31° |
| 2026-05-04 17:55 | 47.90226 | 11.35893 | 16409 ft | 389 kts | 41° |
| 2026-05-04 17:55 | 47.92139 | 11.38732 | 15846 ft | 387 kts | 45° |
| 2026-05-04 17:55 | 47.94008 | 11.41611 | 15272 ft | 386 kts | 45° |
| 2026-05-04 17:56 | 47.95884 | 11.44495 | 15026 ft | 387 kts | 45° |
| 2026-05-04 17:56 | 47.97756 | 11.47377 | 15002 ft | 387 kts | 45° |
| 2026-05-04 17:56 | 47.99636 | 11.50268 | 15008 ft | 388 kts | 45° |
| 2026-05-04 17:56 | 48.01515 | 11.53159 | 15009 ft | 388 kts | 45° |
| 2026-05-04 17:57 | 48.03395 | 11.56052 | 15008 ft | 388 kts | 45° |
| 2026-05-04 17:57 | 48.05276 | 11.58946 | 15008 ft | 388 kts | 45° |
| 2026-05-04 17:57 | 48.07151 | 11.61832 | 15008 ft | 383 kts | 45° |
| 2026-05-04 17:57 | 48.08959 | 11.64625 | 15005 ft | 364 kts | 45° |
| 2026-05-04 17:58 | 48.10679 | 11.67287 | 15006 ft | 348 kts | 45° |
| 2026-05-04 17:58 | 48.12320 | 11.69834 | 15007 ft | 332 kts | 45° |
| 2026-05-04 17:58 | 48.13892 | 11.72272 | 15008 ft | 321 kts | 45° |
| 2026-05-04 17:58 | 48.15431 | 11.74660 | 15010 ft | 318 kts | 45° |